Time;durP1;ratioP1;P1;durP2;ratioP2;P2;SDS_P1;SDS_P2;PMS_P1;PMS_P2;Temp;Humidity;BMP_temperature;BMP_pressure;BME280_temperature;BME280_humidity;BME280_pressure;Samples;Min_cycle;Max_cycle;Signal;HPM_P1;HPM_P2
2023/10/31 00:00:20;;;;;;;7.10;4.55;;;;;;;18.36;48.44;91549.31;6124404;23;20021;-90
2023/10/31 00:02:45;;;;;;;7.47;4.78;;;;;;;18.32;48.44;91544.22;6147259;23;20017;-89
2023/10/31 00:05:10;;;;;;;8.30;4.82;;;;;;;18.34;48.88;91546.38;6123230;23;20468;-90
2023/10/31 00:07:36;;;;;;;7.13;4.40;;;;;;;18.35;48.54;91548.56;6081264;23;20461;-90
2023/10/31 00:10:01;;;;;;;6.63;4.60;;;;;;;18.33;48.40;91547.66;6148782;23;20464;-90
2023/10/31 00:12:27;;;;;;;7.43;4.53;;;;;;;18.34;48.03;91571.00;6098920;23;20010;-90
2023/10/31 00:14:52;;;;;;;6.85;4.07;;;;;;;18.38;48.69;91576.84;6122810;23;20073;-89
2023/10/31 00:17:17;;;;;;;6.88;4.70;;;;;;;18.41;48.75;91581.16;6122585;23;20386;-90
2023/10/31 00:19:44;;;;;;;6.13;4.28;;;;;;;18.35;48.31;91592.34;6091194;23;20022;-91
2023/10/31 00:22:09;;;;;;;5.70;4.07;;;;;;;18.33;48.36;91592.16;6099045;23;20025;-89
2023/10/31 00:24:35;;;;;;;7.25;4.20;;;;;;;18.34;48.23;91576.47;6056508;23;20081;-90
2023/10/31 00:27:00;;;;;;;6.93;4.13;;;;;;;18.33;48.42;91583.97;6118655;23;20025;-89
2023/10/31 00:29:26;;;;;;;6.95;4.55;;;;;;;18.33;48.43;91581.22;6123299;23;20039;-91
2023/10/31 00:31:51;;;;;;;6.28;3.90;;;;;;;18.35;48.03;91597.09;6125701;23;20346;-90
2023/10/31 00:34:16;;;;;;;5.05;3.75;;;;;;;18.31;48.17;91605.66;6148172;23;20017;-92
2023/10/31 00:36:42;;;;;;;6.25;4.20;;;;;;;18.35;48.68;91616.97;6101543;23;20306;-90
2023/10/31 00:39:07;;;;;;;5.53;3.67;;;;;;;18.34;48.53;91622.97;6123795;23;20037;-89
2023/10/31 00:41:33;;;;;;;5.68;3.92;;;;;;;18.37;49.21;91641.03;6106003;23;20076;-91
2023/10/31 00:43:58;;;;;;;6.53;3.47;;;;;;;18.32;48.23;91639.94;6129819;23;20072;-90
2023/10/31 00:46:24;;;;;;;5.28;3.33;;;;;;;18.37;48.50;91660.91;6128734;23;20021;-92
2023/10/31 00:48:51;;;;;;;4.75;3.15;;;;;;;18.37;48.41;91662.91;6155534;23;20021;-90
2023/10/31 00:51:17;;;;;;;5.45;3.45;;;;;;;18.34;48.86;91677.69;6153710;23;20032;-89
2023/10/31 00:53:43;;;;;;;5.22;3.45;;;;;;;18.31;48.80;91668.59;6154735;23;20021;-89
2023/10/31 00:56:08;;;;;;;5.45;3.63;;;;;;;18.32;48.37;91688.47;6128089;23;20013;-89
2023/10/31 00:58:33;;;;;;;6.82;4.38;;;;;;;18.33;48.75;91679.69;6129865;23;20013;-90
2023/10/31 01:00:59;;;;;;;6.40;3.58;;;;;;;18.31;49.20;91687.00;6129444;23;20024;-90
2023/10/31 01:03:25;;;;;;;5.20;3.30;;;;;;;18.34;48.54;91711.25;6128854;23;20028;-94
2023/10/31 01:05:50;;;;;;;4.30;3.50;;;;;;;18.35;48.71;91714.72;6103812;23;20017;-90
2023/10/31 01:08:16;;;;;;;6.10;3.83;;;;;;;18.32;48.54;91721.28;6127816;23;20021;-92
2023/10/31 01:10:41;;;;;;;6.75;3.30;;;;;;;18.32;48.75;91718.53;6104713;23;20017;-89
2023/10/31 01:13:07;;;;;;;5.38;3.13;;;;;;;18.31;48.71;91717.81;6128548;23;20020;-89
2023/10/31 01:15:32;;;;;;;4.93;3.50;;;;;;;18.34;48.61;91727.66;6104483;23;20009;-91
2023/10/31 01:17:58;;;;;;;4.75;3.40;;;;;;;18.35;48.79;91739.34;6104055;23;20447;-90
2023/10/31 01:20:23;;;;;;;5.72;3.30;;;;;;;18.32;48.39;91738.41;6127437;23;20024;-89
2023/10/31 01:22:48;;;;;;;6.22;3.38;;;;;;;18.35;48.30;91739.34;6128584;23;20449;-89
2023/10/31 01:25:15;;;;;;;4.45;3.10;;;;;;;18.34;48.75;91740.59;6126368;23;20013;-90
2023/10/31 01:27:41;;;;;;;3.35;2.63;;;;;;;18.31;48.53;91749.91;6103850;23;20516;-91
2023/10/31 01:30:07;;;;;;;5.03;3.25;;;;;;;18.34;48.83;91748.81;6128654;23;20344;-90
2023/10/31 01:32:33;;;;;;;4.68;3.35;;;;;;;18.35;49.01;91748.28;6103564;23;20088;-92
2023/10/31 01:34:58;;;;;;;4.82;3.35;;;;;;;18.36;48.88;91751.72;6152298;23;20024;-91
2023/10/31 01:37:24;;;;;;;6.65;3.28;;;;;;;18.34;48.99;91737.88;6127190;23;20025;-90
2023/10/31 01:39:49;;;;;;;5.25;3.08;;;;;;;18.35;48.64;91742.06;6127940;23;20017;-90
2023/10/31 01:42:15;;;;;;;3.83;2.67;;;;;;;18.33;48.65;91742.63;6113536;23;20029;-89
2023/10/31 01:44:40;;;;;;;5.85;2.75;;;;;;;18.32;48.96;91732.94;6098873;23;20124;-90
2023/10/31 01:47:06;;;;;;;5.15;2.83;;;;;;;18.34;49.02;91748.81;6098129;23;20018;-92
2023/10/31 01:49:32;;;;;;;3.83;2.95;;;;;;;18.32;49.06;91756.84;6099066;23;20468;-90
2023/10/31 01:51:59;;;;;;;4.93;2.90;;;;;;;18.30;48.93;91757.38;6074868;23;20422;-90
2023/10/31 01:54:24;;;;;;;3.63;2.67;;;;;;;18.31;49.33;91760.84;6098561;23;20017;-92
2023/10/31 01:56:54;;;;;;;4.07;2.67;;;;;;;18.27;48.70;91769.44;6074193;23;20021;-89
2023/10/31 01:59:19;;;;;;;4.43;2.83;;;;;;;18.30;48.65;91773.81;6075817;23;20037;-90
2023/10/31 02:01:44;;;;;;;4.60;2.78;;;;;;;18.32;48.84;91765.06;6075194;23;20484;-90
2023/10/31 02:04:10;;;;;;;3.78;2.65;;;;;;;18.33;48.66;91772.72;6074219;23;20446;-91
2023/10/31 02:06:35;;;;;;;4.10;2.55;;;;;;;18.36;48.58;91765.41;6098926;23;20022;-91
2023/10/31 02:09:01;;;;;;;5.28;2.70;;;;;;;18.29;48.86;91753.19;6099069;23;20357;-90
2023/10/31 02:11:26;;;;;;;3.75;2.40;;;;;;;18.30;49.04;91753.94;6097642;23;20021;-89
2023/10/31 02:13:52;;;;;;;3.00;2.40;;;;;;;18.31;48.92;91758.84;6123894;23;20025;-91
2023/10/31 02:16:17;;;;;;;4.55;2.75;;;;;;;18.32;48.87;91765.06;6098218;23;20434;-90
2023/10/31 02:18:43;;;;;;;4.60;2.58;;;;;;;18.33;48.85;91759.03;6099465;23;20021;-91
2023/10/31 02:21:08;;;;;;;3.05;2.15;;;;;;;18.32;49.03;91757.56;6098074;23;20049;-91
2023/10/31 02:23:33;;;;;;;2.90;2.33;;;;;;;18.31;48.59;91750.63;6100453;23;20552;-90
2023/10/31 02:25:59;;;;;;;2.88;1.90;;;;;;;18.34;48.69;91759.75;6075071;23;20092;-90
2023/10/31 02:28:27;;;;;;;4.90;2.65;;;;;;;18.34;48.83;91757.75;6123222;23;20329;-90
2023/10/31 02:30:54;;;;;;;4.25;2.30;;;;;;;18.32;48.80;91748.63;6076909;23;20402;-89
2023/10/31 02:33:21;;;;;;;3.35;2.35;;;;;;;18.31;49.06;91756.09;6098605;23;20073;-90
2023/10/31 02:35:46;;;;;;;3.55;2.38;;;;;;;18.31;49.05;91752.66;6099342;23;20410;-92
2023/10/31 02:38:12;;;;;;;3.20;2.50;;;;;;;18.35;48.79;91758.47;6098710;23;20046;-89
2023/10/31 02:40:37;;;;;;;2.92;2.28;;;;;;;18.31;49.71;91753.38;6098942;23;20395;-89
2023/10/31 02:43:02;;;;;;;2.85;2.22;;;;;;;18.29;49.31;91769.59;6121477;23;20413;-90
2023/10/31 02:45:29;;;;;;;7.57;2.45;;;;;;;18.29;49.26;91777.81;6127921;23;20516;-90
2023/10/31 02:47:55;;;;;;;3.75;2.40;;;;;;;18.29;48.74;91774.34;6128812;23;20039;-90
2023/10/31 02:50:20;;;;;;;3.67;2.28;;;;;;;18.34;49.04;91767.97;6127554;23;20349;-90
2023/10/31 02:52:45;;;;;;;3.58;2.38;;;;;;;18.32;49.26;91781.47;6127789;23;20017;-89
2023/10/31 02:55:11;;;;;;;2.58;1.73;;;;;;;18.34;49.18;91779.63;6127052;23;20353;-89
2023/10/31 02:57:36;;;;;;;4.72;2.35;;;;;;;18.30;49.39;91784.00;6127228;23;20025;-90
2023/10/31 03:00:02;;;;;;;3.95;2.25;;;;;;;18.30;48.98;91789.50;6128667;23;20068;-88
2023/10/31 03:02:30;;;;;;;3.47;2.50;;;;;;;18.31;49.40;91802.63;6127154;23;20020;-90
2023/10/31 03:04:57;;;;;;;3.50;2.15;;;;;;;18.29;48.92;91798.97;6129305;23;20032;-88
2023/10/31 03:07:22;;;;;;;2.67;1.70;;;;;;;18.31;48.31;91804.63;6127663;23;20080;-90
2023/10/31 03:09:48;;;;;;;2.95;2.10;;;;;;;18.30;49.25;91803.88;6127919;23;20708;-91
2023/10/31 03:12:13;;;;;;;2.70;1.80;;;;;;;18.30;49.46;91805.91;6127721;23;20021;-90
2023/10/31 03:14:39;;;;;;;2.95;1.95;;;;;;;18.28;49.40;91802.97;6127690;23;20341;-88
2023/10/31 03:17:04;;;;;;;3.17;2.25;;;;;;;18.31;49.63;91804.63;6127682;23;20807;-89
2023/10/31 03:19:29;;;;;;;3.35;2.17;;;;;;;18.32;49.59;91797.88;6128629;23;20013;-90
2023/10/31 03:21:55;;;;;;;2.78;1.80;;;;;;;18.34;49.05;91806.25;6128471;23;20022;-89
2023/10/31 03:24:21;;;;;;;2.38;1.83;;;;;;;18.33;49.13;91802.06;6102552;23;20013;-89
2023/10/31 03:26:46;;;;;;;3.03;1.90;;;;;;;18.28;49.08;91809.19;6128679;23;20009;-89
2023/10/31 03:29:11;;;;;;;3.20;1.92;;;;;;;18.30;49.74;91811.38;6152245;23;20022;-89
2023/10/31 03:31:37;;;;;;;3.05;2.00;;;;;;;18.29;49.48;91818.84;6129147;23;20043;-88
2023/10/31 03:34:02;;;;;;;2.83;2.20;;;;;;;18.31;48.91;91821.03;6127767;23;20028;-89
2023/10/31 03:36:28;;;;;;;2.45;1.55;;;;;;;18.32;49.35;91811.56;6127903;23;20032;-90
2023/10/31 03:38:53;;;;;;;2.58;1.83;;;;;;;18.30;49.71;91823.03;6128804;23;20493;-89
2023/10/31 03:41:18;;;;;;;2.15;1.65;;;;;;;18.28;49.87;91822.13;6102719;23;20404;-89
2023/10/31 03:43:44;;;;;;;2.60;2.03;;;;;;;18.32;49.39;91822.50;6129966;23;20014;-92
2023/10/31 03:46:09;;;;;;;2.55;1.65;;;;;;;18.33;49.41;91824.69;6127800;23;20021;-90
2023/10/31 03:48:35;;;;;;;2.53;1.80;;;;;;;18.29;49.31;91823.59;6104355;23;20013;-90
2023/10/31 03:51:00;;;;;;;2.22;1.60;;;;;;;18.31;49.70;91824.50;6154096;23;20013;-90
2023/10/31 03:53:27;;;;;;;2.08;1.63;;;;;;;18.31;49.64;91834.72;6128755;23;20028;-88
2023/10/31 03:55:52;;;;;;;2.00;1.60;;;;;;;18.30;49.33;91847.66;6128510;23;20013;-89
2023/10/31 03:58:17;;;;;;;4.10;1.63;;;;;;;18.29;49.58;91843.47;6126983;23;20028;-89
2023/10/31 04:00:43;;;;;;;2.63;1.85;;;;;;;18.34;49.54;91848.03;6126630;23;20016;-89
2023/10/31 04:03:08;;;;;;;2.70;1.80;;;;;;;18.28;48.95;91849.47;6152499;23;20009;-90
2023/10/31 04:05:34;;;;;;;1.88;1.33;;;;;;;18.28;49.72;91865.91;6104719;23;20013;-89
2023/10/31 04:08:00;;;;;;;3.45;1.63;;;;;;;18.26;49.93;91860.25;6105006;23;20013;-88
2023/10/31 04:10:26;;;;;;;2.35;1.70;;;;;;;18.26;49.61;91869.16;6127455;23;20025;-90
2023/10/31 04:12:51;;;;;;;2.40;1.73;;;;;;;18.27;49.46;91869.91;6129928;23;20076;-92
2023/10/31 04:15:16;;;;;;;2.90;1.98;;;;;;;18.27;49.21;91873.38;6104123;23;20017;-89
2023/10/31 04:17:42;;;;;;;2.47;1.30;;;;;;;18.26;49.60;91877.38;6128753;23;20354;-89
2023/10/31 04:20:08;;;;;;;2.17;1.35;;;;;;;18.29;49.97;91872.81;6128453;23;20734;-90
2023/10/31 04:22:33;;;;;;;2.95;1.98;;;;;;;18.26;49.63;91893.78;6104144;23;20009;-89
2023/10/31 04:24:59;;;;;;;2.08;1.60;;;;;;;18.30;49.69;91896.91;6129255;23;20020;-89
2023/10/31 04:27:24;;;;;;;2.67;1.83;;;;;;;18.28;49.45;91902.19;6082930;23;20029;-91
2023/10/31 04:29:50;;;;;;;2.70;1.70;;;;;;;18.32;49.24;91899.81;6110697;23;20027;-91
2023/10/31 04:32:15;;;;;;;1.85;1.48;;;;;;;18.46;49.36;91900.34;6134281;23;20021;-92
2023/10/31 04:34:41;;;;;;;2.05;1.38;;;;;;;18.55;49.38;91908.03;6137726;23;20025;-91
2023/10/31 04:37:07;;;;;;;2.90;1.48;;;;;;;18.54;49.62;91908.56;6135266;23;20112;-92
2023/10/31 04:39:32;;;;;;;1.85;1.40;;;;;;;18.61;49.00;91902.41;6123557;23;20013;-92
2023/10/31 04:42:00;;;;;;;6.53;2.53;;;;;;;18.59;49.26;91913.91;6186466;23;20013;-93
2023/10/31 04:44:26;;;;;;;7.53;3.75;;;;;;;18.63;48.94;91922.44;6141971;23;20048;-94
2023/10/31 04:46:51;;;;;;;3.63;2.45;;;;;;;18.62;48.81;91926.47;6108526;23;20084;-94
2023/10/31 04:51:44;;;;;;;5.00;3.47;;;;;;;18.54;48.85;91912.03;6142105;23;20037;-92
2023/10/31 04:54:18;;;;;;;17.70;5.93;;;;;;;18.47;49.15;91932.66;6094781;23;20019;-91
2023/10/31 04:56:50;;;;;;;15.10;5.78;;;;;;;18.62;49.18;91928.50;6082162;23;20065;-91
2023/10/31 04:59:16;;;;;;;6.38;5.00;;;;;;;18.49;49.22;91951.25;6108450;23;20018;-91
2023/10/31 05:01:55;;;;;;;11.32;4.93;;;;;;;18.46;49.02;91960.56;6073974;23;20017;-89
2023/10/31 05:04:22;;;;;;;26.55;7.10;;;;;;;18.49;49.09;91962.19;6109470;23;20040;-92
2023/10/31 05:06:47;;;;;;;36.90;7.80;;;;;;;18.53;48.94;91962.56;6113621;23;20397;-91
2023/10/31 05:09:15;;;;;;;33.78;8.45;;;;;;;18.44;49.60;91947.41;6096096;23;20644;-90
2023/10/31 05:11:41;;;;;;;33.08;8.65;;;;;;;18.45;49.76;91950.88;6095252;23;20053;-90
2023/10/31 05:14:07;;;;;;;28.23;12.82;;;;;;;18.42;49.60;91957.44;6129433;23;20014;-92
2023/10/31 05:16:39;;;;;;;60.85;27.08;;;;;;;18.39;49.80;91948.34;6104761;23;20663;-93
2023/10/31 05:19:04;;;;;;;51.00;24.23;;;;;;;18.40;49.78;91949.06;6102172;23;20389;-91
2023/10/31 05:21:30;;;;;;;90.90;33.28;;;;;;;18.44;49.97;91952.16;6104768;23;20010;-93
2023/10/31 05:24:01;;;;;;;71.10;30.73;;;;;;;18.38;49.55;91966.03;6112628;23;20021;-94
2023/10/31 05:26:29;;;;;;;74.47;35.30;;;;;;;18.37;50.06;91961.09;6105108;23;20022;-94
2023/10/31 05:29:26;;;;;;;73.32;32.85;;;;;;;18.38;50.00;91968.03;6088897;23;20076;-94
2023/10/31 05:31:54;;;;;;;87.88;38.47;;;;;;;18.38;49.81;91981.72;6162928;23;20025;-91
2023/10/31 05:34:23;;;;;;;79.30;34.70;;;;;;;18.37;49.94;91980.25;6079064;23;20073;-93
2023/10/31 05:36:49;;;;;;;65.25;31.50;;;;;;;18.37;49.89;91983.72;6053692;23;20018;-93
2023/10/31 05:41:39;;;;;;;78.38;35.15;;;;;;;18.39;49.96;91992.13;6106528;23;20022;-91
2023/10/31 05:44:07;;;;;;;84.32;37.28;;;;;;;18.44;49.96;91999.41;6066060;23;20021;-93
2023/10/31 05:46:39;;;;;;;77.80;35.58;;;;;;;18.49;49.86;92000.50;6098657;23;20026;-92
2023/10/31 05:49:08;;;;;;;79.00;35.22;;;;;;;18.51;49.50;92006.16;6046087;23;20062;-91
2023/10/31 05:51:35;;;;;;;64.78;29.05;;;;;;;18.44;50.48;92021.28;6022386;23;20019;-91
2023/10/31 05:54:07;;;;;;;83.03;31.90;;;;;;;18.40;49.41;92018.19;6047291;23;20029;-92
2023/10/31 05:56:33;;;;;;;107.93;41.40;;;;;;;18.33;49.38;92018.91;6028222;23;20019;-92
2023/10/31 05:59:00;;;;;;;99.85;39.38;;;;;;;18.29;49.51;92021.28;6044542;23;20059;-91
2023/10/31 06:01:26;;;;;;;85.25;32.95;;;;;;;18.35;50.22;92021.84;6040421;23;20081;-91
2023/10/31 06:03:51;;;;;;;95.72;34.60;;;;;;;18.36;50.32;92028.03;6013844;23;20014;-91
2023/10/31 06:06:18;;;;;;;127.75;41.17;;;;;;;18.35;50.00;92021.84;6010944;23;20027;-91
2023/10/31 06:08:44;;;;;;;95.80;35.30;;;;;;;18.33;50.30;92023.66;6015466;23;20022;-93
2023/10/31 06:11:18;;;;;;;163.93;68.38;;;;;;;18.35;50.33;92024.56;6004273;23;20030;-90
2023/10/31 06:13:44;;;;;;;137.43;61.03;;;;;;;18.38;50.52;92028.22;6044556;23;20022;-90
2023/10/31 06:16:10;;;;;;;175.55;66.07;;;;;;;18.38;50.35;92033.69;6063485;23;20288;-87
2023/10/31 06:18:39;;;;;;;134.27;59.38;;;;;;;18.38;50.73;92039.19;6066817;23;20209;-93
2023/10/31 06:21:04;;;;;;;125.40;52.60;;;;;;;18.35;51.04;92049.19;6090700;23;20030;-90
2023/10/31 06:23:34;;;;;;;114.97;46.53;;;;;;;18.34;50.94;92066.16;6040951;23;20466;-93
2023/10/31 06:26:00;;;;;;;134.63;54.95;;;;;;;18.36;50.78;92058.13;6044642;23;20010;-87
2023/10/31 06:28:54;;;;;;;157.10;51.75;;;;;;;18.38;50.77;92066.53;6044036;23;20065;-91
2023/10/31 06:31:22;;;;;;;122.40;43.53;;;;;;;18.38;50.89;92064.53;5944618;24;20068;-92
2023/10/31 06:33:57;;;;;;;145.57;54.55;;;;;;;18.35;50.59;92062.16;5947294;24;20032;-93
2023/10/31 06:36:33;;;;;;;116.07;49.25;;;;;;;18.38;50.99;92058.31;5967978;23;21095;-90
2023/10/31 06:39:00;;;;;;;136.90;54.65;;;;;;;18.38;50.46;92077.47;5976908;23;20079;-92
2023/10/31 06:41:29;;;;;;;131.85;48.38;;;;;;;18.40;51.09;92074.94;6013988;23;20122;-92
2023/10/31 06:44:02;;;;;;;112.05;48.72;;;;;;;18.40;50.59;92074.94;6117145;23;20025;-91
2023/10/31 06:46:27;;;;;;;158.38;74.60;;;;;;;18.42;50.84;92083.31;6182562;23;20477;-90
2023/10/31 06:48:53;;;;;;;195.23;85.57;;;;;;;18.37;50.50;92076.00;6148035;23;20021;-93
2023/10/31 06:51:19;;;;;;;227.80;94.68;;;;;;;18.41;50.54;92082.56;6150952;23;20014;-91
2023/10/31 06:53:45;;;;;;;225.60;91.90;;;;;;;18.42;50.43;92072.34;6126638;23;20458;-92
2023/10/31 06:56:10;;;;;;;196.68;87.05;;;;;;;18.40;50.04;92083.84;6082541;23;20133;-92
2023/10/31 06:58:36;;;;;;;184.75;77.65;;;;;;;18.44;50.53;92086.22;6097513;23;20013;-93
2023/10/31 07:01:03;;;;;;;184.25;78.22;;;;;;;18.41;50.72;92085.31;6097827;23;20025;-90
2023/10/31 07:03:32;;;;;;;160.50;70.78;;;;;;;18.45;50.30;92068.53;6090849;23;20032;-94
2023/10/31 07:05:59;;;;;;;144.73;67.07;;;;;;;18.46;50.98;92078.22;6126105;23;20410;-91
2023/10/31 07:08:30;;;;;;;171.70;72.05;;;;;;;18.50;50.19;92081.34;6112870;23;20018;-94
2023/10/31 07:10:58;;;;;;;158.25;73.80;;;;;;;18.56;50.22;92081.16;6073886;23;20025;-93
2023/10/31 07:13:26;;;;;;;162.48;75.60;;;;;;;18.53;50.19;92074.03;6122955;23;20513;-93
2023/10/31 07:15:54;;;;;;;137.48;71.97;;;;;;;18.53;50.08;92082.97;6148502;23;20514;-94
2023/10/31 07:18:22;;;;;;;141.95;70.97;;;;;;;18.54;50.25;92092.66;6097510;23;20022;-90
2023/10/31 07:20:48;;;;;;;126.35;67.20;;;;;;;18.57;49.96;92107.25;6100440;23;20018;-93
2023/10/31 07:23:13;;;;;;;138.55;66.32;;;;;;;18.60;50.10;92119.91;6116568;23;20141;-90
2023/10/31 07:25:39;;;;;;;142.02;66.97;;;;;;;18.64;50.01;92114.78;6126510;23;20014;-91
2023/10/31 07:28:05;;;;;;;99.88;50.47;;;;;;;18.57;50.32;92127.16;6116949;23;20025;-92
2023/10/31 07:30:30;;;;;;;107.25;50.08;;;;;;;18.61;49.98;92122.09;6048428;23;20021;-92
2023/10/31 07:32:56;;;;;;;112.55;57.58;;;;;;;18.58;50.08;92117.66;6050089;23;20020;-91
2023/10/31 07:35:21;;;;;;;86.70;44.83;;;;;;;18.54;50.10;92122.75;6046541;23;20025;-88
2023/10/31 07:37:48;;;;;;;105.72;52.15;;;;;;;18.54;50.31;92143.91;6071615;23;20073;-90
2023/10/31 07:40:14;;;;;;;116.47;60.22;;;;;;;18.50;50.33;92153.22;6048054;23;20040;-91
2023/10/31 07:42:39;;;;;;;190.93;93.60;;;;;;;18.52;50.19;92155.41;6071380;23;20013;-94
2023/10/31 07:45:06;;;;;;;177.73;92.25;;;;;;;18.55;50.22;92156.34;6047921;23;20032;-92
2023/10/31 07:47:31;;;;;;;183.23;85.18;;;;;;;18.56;50.46;92147.59;6072888;23;20021;-91
2023/10/31 07:49:57;;;;;;;154.15;75.60;;;;;;;18.54;50.51;92163.81;6074741;23;20028;-90
2023/10/31 07:52:22;;;;;;;159.00;76.65;;;;;;;18.53;50.71;92178.75;6075361;23;20030;-92
2023/10/31 07:54:49;;;;;;;180.45;81.35;;;;;;;18.51;50.61;92186.78;6033369;23;20015;-91
2023/10/31 07:57:17;;;;;;;218.45;103.13;;;;;;;18.52;50.06;92182.78;6047727;23;20025;-91
2023/10/31 07:59:43;;;;;;;186.80;88.70;;;;;;;18.58;50.21;92163.47;6113259;23;20018;-92
2023/10/31 08:02:13;;;;;;;199.30;98.00;;;;;;;18.56;50.30;92141.38;6107039;23;20032;-90
2023/10/31 08:04:38;;;;;;;203.50;98.22;;;;;;;18.52;50.31;92133.50;6133558;23;20029;-91
2023/10/31 08:07:04;;;;;;;203.55;96.50;;;;;;;18.52;50.52;92138.25;6100397;23;20018;-91
2023/10/31 08:09:34;;;;;;;181.77;89.28;;;;;;;18.52;50.44;92155.41;6108533;23;20537;-90
2023/10/31 08:12:00;;;;;;;158.63;80.20;;;;;;;18.48;50.04;92139.34;6139149;23;20033;-89
2023/10/31 08:14:30;;;;;;;160.25;78.28;;;;;;;18.55;50.92;92134.44;6142181;23;20030;-89
2023/10/31 08:17:05;;;;;;;195.10;97.78;;;;;;;18.53;50.25;92139.72;6131691;23;20022;-89
2023/10/31 08:19:31;;;;;;;151.75;71.75;;;;;;;18.52;50.61;92155.41;6115456;23;20456;-91
2023/10/31 08:21:56;;;;;;;120.85;67.40;;;;;;;18.54;50.73;92141.19;6115835;23;20041;-93
2023/10/31 08:24:22;;;;;;;154.27;80.78;;;;;;;18.53;50.46;92148.66;6072013;23;20028;-91
2023/10/31 08:26:53;;;;;;;139.32;75.65;;;;;;;18.52;50.74;92166.34;6123199;23;20014;-93
2023/10/31 08:29:20;;;;;;;;;;;;;;;18.56;50.53;92161.28;6099430;23;20014;-92
2023/10/31 08:31:46;;;;;;;154.27;78.53;;;;;;;18.56;50.45;92164.00;6125077;23;19913;-93
2023/10/31 08:34:15;;;;;;;177.02;87.82;;;;;;;18.56;50.90;92158.53;6120604;23;20016;-89
2023/10/31 08:36:43;;;;;;;161.53;82.67;;;;;;;18.56;50.74;92152.31;6168071;23;20050;-90
2023/10/31 08:39:10;;;;;;;163.95;81.53;;;;;;;18.58;50.92;92149.78;6131308;23;20276;-93
2023/10/31 08:41:38;;;;;;;233.80;109.35;;;;;;;18.57;50.38;92160.00;6133217;23;20451;-89
2023/10/31 08:44:19;;;;;;;247.43;122.72;;;;;;;18.64;50.01;92164.03;6119981;23;20044;-88
2023/10/31 08:46:45;;;;;;;239.70;111.40;;;;;;;18.59;50.32;92167.66;6090609;23;20030;-91
2023/10/31 08:49:12;;;;;;;240.18;106.75;;;;;;;18.60;50.36;92158.94;6077164;23;20030;-94
2023/10/31 08:51:44;;;;;;;198.27;94.45;;;;;;;18.59;50.35;92134.81;6122608;23;20014;-91
2023/10/31 08:54:14;;;;;;;216.48;104.47;;;;;;;18.62;50.31;92144.72;6076635;23;20025;-92
2023/10/31 08:56:52;;;;;;;216.60;110.03;;;;;;;18.58;50.21;92147.03;6084595;23;20029;-87
2023/10/31 08:59:25;;;;;;;178.68;86.57;;;;;;;18.55;50.66;92137.91;6189121;23;20072;-88
2023/10/31 09:02:02;;;;;;;140.00;69.43;;;;;;;18.56;50.85;92138.63;6127669;23;20020;-88
2023/10/31 09:04:30;;;;;;;161.98;79.28;;;;;;;18.57;50.79;92124.41;6090339;23;20022;-88
2023/10/31 09:06:56;;;;;;;168.23;88.07;;;;;;;18.58;50.33;92142.31;6088164;23;20129;-94
2023/10/31 09:09:21;;;;;;;139.82;74.15;;;;;;;18.58;50.87;92145.03;5991869;23;20050;-95
2023/10/31 09:11:47;;;;;;;158.88;82.10;;;;;;;18.59;50.38;92143.03;6017616;23;20027;-92
2023/10/31 09:14:12;;;;;;;157.90;78.80;;;;;;;18.59;50.58;92132.84;6015711;23;20030;-92
2023/10/31 09:16:38;;;;;;;128.15;68.47;;;;;;;18.58;50.80;92141.56;6035661;23;20015;-92
2023/10/31 09:19:03;;;;;;;165.90;82.35;;;;;;;18.58;50.64;92155.97;6014798;23;20112;-92
2023/10/31 09:21:29;;;;;;;172.43;82.63;;;;;;;18.60;50.18;92153.47;6022994;23;20671;-91
2023/10/31 09:23:54;;;;;;;173.77;79.95;;;;;;;18.57;50.35;92176.41;6045620;23;20475;-93
2023/10/31 09:26:20;;;;;;;182.88;90.28;;;;;;;18.58;50.15;92174.41;6013091;23;20098;-94
2023/10/31 09:28:49;;;;;;;195.57;84.72;;;;;;;18.59;50.77;92195.78;6018533;23;20019;-92
2023/10/31 09:31:17;;;;;;;171.82;74.55;;;;;;;18.58;50.60;92202.50;6020243;23;20061;-93
2023/10/31 09:33:43;;;;;;;179.95;77.43;;;;;;;18.59;50.39;92195.78;6014960;23;20025;-89
2023/10/31 09:36:08;;;;;;;132.68;64.53;;;;;;;18.59;50.66;92186.81;5990316;23;20055;-92
2023/10/31 09:38:34;;;;;;;153.18;73.28;;;;;;;18.60;50.54;92189.06;6017256;23;20059;-91
2023/10/31 09:41:00;;;;;;;147.32;74.30;;;;;;;18.62;50.71;92170.06;6015427;23;20015;-92
2023/10/31 09:43:26;;;;;;;172.63;85.47;;;;;;;18.60;50.53;92172.63;6001839;23;20031;-93
2023/10/31 09:45:52;;;;;;;127.70;65.60;;;;;;;18.60;50.44;92191.78;6016965;23;20050;-92
2023/10/31 09:48:19;;;;;;;132.32;69.53;;;;;;;18.59;50.79;92198.53;5993333;23;20366;-94
2023/10/31 09:50:45;;;;;;;204.80;101.45;;;;;;;18.60;50.36;92215.69;6016297;23;20023;-90
2023/10/31 09:53:10;;;;;;;174.88;88.40;;;;;;;18.60;50.23;92218.44;6014346;23;20077;-92
2023/10/31 09:55:36;;;;;;;150.85;78.72;;;;;;;18.62;50.28;92241.22;5991615;23;20019;-91
2023/10/31 09:58:01;;;;;;;107.30;56.33;;;;;;;18.63;50.74;92264.59;6039302;23;20018;-93
2023/10/31 10:00:27;;;;;;;125.55;66.93;;;;;;;18.65;50.91;92267.53;6097834;23;20018;-92
2023/10/31 10:02:53;;;;;;;135.68;72.60;;;;;;;18.63;50.35;92261.84;6097670;23;20029;-90
2023/10/31 10:05:20;;;;;;;193.25;101.80;;;;;;;18.63;50.19;92274.81;6098108;23;20462;-91
2023/10/31 10:07:46;;;;;;;148.45;76.65;;;;;;;18.63;50.64;92266.59;6104221;23;20018;-90
2023/10/31 10:10:21;;;;;;;163.18;82.32;;;;;;;18.62;50.49;92274.06;6100670;23;20036;-90
2023/10/31 10:12:53;;;;;;;124.70;67.15;;;;;;;18.64;50.66;92279.00;6083965;23;20010;-92
2023/10/31 10:15:19;;;;;;;202.82;99.60;;;;;;;18.62;50.32;92284.31;6057151;23;20015;-93
2023/10/31 10:17:51;;;;;;;123.10;63.72;;;;;;;18.64;50.75;92281.75;6019197;23;20027;-93
2023/10/31 10:20:17;;;;;;;201.98;107.05;;;;;;;18.65;50.45;92262.03;6016118;23;20528;-92
2023/10/31 10:22:43;;;;;;;225.48;108.78;;;;;;;18.61;50.42;92248.00;5990055;23;20046;-91
2023/10/31 10:25:18;;;;;;;182.50;94.20;;;;;;;18.64;50.88;92237.94;6016116;23;20383;-93
2023/10/31 10:27:45;;;;;;;214.10;103.70;;;;;;;18.59;50.64;92234.13;6076640;23;20029;-90
2023/10/31 10:30:12;;;;;;;186.63;97.68;;;;;;;18.62;50.44;92216.59;6122513;23;20022;-92
2023/10/31 10:32:38;;;;;;;170.32;87.93;;;;;;;18.60;50.27;92191.78;6098827;23;20025;-91
2023/10/31 10:35:04;;;;;;;184.20;84.25;;;;;;;18.59;50.53;92173.13;6091150;23;20034;-93
2023/10/31 10:37:30;;;;;;;162.48;83.35;;;;;;;18.60;50.76;92167.16;6098570;23;20022;-95
2023/10/31 10:39:56;;;;;;;183.45;86.72;;;;;;;18.60;50.58;92197.25;6099077;23;20470;-90
2023/10/31 10:42:46;;;;;;;144.98;71.47;;;;;;;18.59;50.67;92200.50;6096466;23;20073;-91
2023/10/31 10:45:13;;;;;;;177.32;84.10;;;;;;;18.60;50.23;92215.69;6100219;23;20547;-91
2023/10/31 10:47:38;;;;;;;166.43;79.78;;;;;;;18.63;50.38;92225.53;6086966;23;20261;-91
2023/10/31 10:50:04;;;;;;;177.65;90.30;;;;;;;18.63;50.43;92234.47;6098640;23;20085;-92
2023/10/31 10:52:49;;;;;;;150.20;76.32;;;;;;;18.64;50.38;92255.09;6097686;23;20509;-93
2023/10/31 10:55:22;;;;;;;194.90;91.13;;;;;;;18.65;50.01;92269.53;6120996;23;20014;-89
2023/10/31 10:57:54;;;;;;;173.60;81.63;;;;;;;18.67;50.86;92275.19;6074695;23;20040;-93
2023/10/31 11:00:24;;;;;;;270.23;117.70;;;;;;;18.76;49.89;92291.13;6092446;23;20029;-92
2023/10/31 11:02:52;;;;;;;253.98;118.18;;;;;;;18.67;49.89;92281.41;6093634;23;20021;-92
2023/10/31 11:05:17;;;;;;;230.73;117.38;;;;;;;18.62;50.69;92287.03;6093322;23;20022;-90
2023/10/31 11:07:43;;;;;;;202.43;103.78;;;;;;;18.66;50.43;92284.66;6096227;23;20010;-90
2023/10/31 11:10:09;;;;;;;213.55;107.97;;;;;;;18.66;50.50;92279.19;6071350;23;20018;-90
2023/10/31 11:12:34;;;;;;;225.63;115.43;;;;;;;18.66;50.52;92260.03;6094729;23;20089;-92
2023/10/31 11:15:02;;;;;;;154.98;86.38;;;;;;;18.64;50.66;92257.09;6093134;23;20529;-91
2023/10/31 11:17:32;;;;;;;167.95;89.07;;;;;;;18.61;50.49;92245.25;6092821;23;20036;-91
2023/10/31 11:19:58;;;;;;;202.77;99.57;;;;;;;18.59;50.60;92256.00;6093183;23;20048;-91
2023/10/31 11:22:24;;;;;;;160.07;85.65;;;;;;;18.61;50.59;92269.16;6068210;23;20022;-92